sensor_id;sensor_type;location;lat;lon;timestamp;temperature;humidity
54938;DHT22;52756;52.826;6.214;2022-08-19T00:00:30;18.60;65.10
54938;DHT22;52756;52.826;6.214;2022-08-19T00:02:56;18.60;65.10
54938;DHT22;52756;52.826;6.214;2022-08-19T00:05:22;18.60;65.50
54938;DHT22;52756;52.826;6.214;2022-08-19T00:07:49;18.70;65.00
54938;DHT22;52756;52.826;6.214;2022-08-19T00:10:16;18.70;65.00
54938;DHT22;52756;52.826;6.214;2022-08-19T00:12:42;18.70;65.00
54938;DHT22;52756;52.826;6.214;2022-08-19T00:15:10;18.70;64.90
54938;DHT22;52756;52.826;6.214;2022-08-19T00:17:42;18.70;64.90
54938;DHT22;52756;52.826;6.214;2022-08-19T00:20:11;18.70;64.80
54938;DHT22;52756;52.826;6.214;2022-08-19T00:22:38;18.70;64.70
54938;DHT22;52756;52.826;6.214;2022-08-19T00:25:05;18.80;64.70
54938;DHT22;52756;52.826;6.214;2022-08-19T00:27:31;18.80;64.60
54938;DHT22;52756;52.826;6.214;2022-08-19T00:29:57;18.80;64.90
54938;DHT22;52756;52.826;6.214;2022-08-19T00:32:24;18.80;64.40
54938;DHT22;52756;52.826;6.214;2022-08-19T00:34:51;18.80;64.30
54938;DHT22;52756;52.826;6.214;2022-08-19T00:37:19;18.80;64.20
54938;DHT22;52756;52.826;6.214;2022-08-19T00:39:44;18.80;64.20
54938;DHT22;52756;52.826;6.214;2022-08-19T00:42:10;18.80;64.10
54938;DHT22;52756;52.826;6.214;2022-08-19T00:44:36;18.80;64.00
54938;DHT22;52756;52.826;6.214;2022-08-19T00:47:01;18.80;63.90
54938;DHT22;52756;52.826;6.214;2022-08-19T00:52:02;18.80;63.70
54938;DHT22;52756;52.826;6.214;2022-08-19T00:54:29;18.80;63.70
54938;DHT22;52756;52.826;6.214;2022-08-19T00:56:58;18.80;63.60
54938;DHT22;52756;52.826;6.214;2022-08-19T00:59:25;18.80;63.70
54938;DHT22;52756;52.826;6.214;2022-08-19T01:01:51;18.70;63.60
54938;DHT22;52756;52.826;6.214;2022-08-19T01:04:17;18.70;63.60
54938;DHT22;52756;52.826;6.214;2022-08-19T01:06:43;18.70;63.50
54938;DHT22;52756;52.826;6.214;2022-08-19T01:09:09;18.70;63.50
54938;DHT22;52756;52.826;6.214;2022-08-19T01:11:39;18.70;63.50
54938;DHT22;52756;52.826;6.214;2022-08-19T01:14:07;18.70;63.40
54938;DHT22;52756;52.826;6.214;2022-08-19T01:16:34;18.70;63.30
54938;DHT22;52756;52.826;6.214;2022-08-19T01:19:06;18.70;63.30
54938;DHT22;52756;52.826;6.214;2022-08-19T01:21:44;18.70;63.30
54938;DHT22;52756;52.826;6.214;2022-08-19T01:24:13;18.60;63.20
54938;DHT22;52756;52.826;6.214;2022-08-19T01:26:41;18.60;63.10
54938;DHT22;52756;52.826;6.214;2022-08-19T01:29:08;18.60;63.20
54938;DHT22;52756;52.826;6.214;2022-08-19T01:31:35;18.60;63.20
54938;DHT22;52756;52.826;6.214;2022-08-19T01:34:03;18.60;63.20
54938;DHT22;52756;52.826;6.214;2022-08-19T01:39:23;18.50;63.20
54938;DHT22;52756;52.826;6.214;2022-08-19T01:41:50;18.50;63.20
54938;DHT22;52756;52.826;6.214;2022-08-19T01:44:16;18.50;63.20
54938;DHT22;52756;52.826;6.214;2022-08-19T01:46:43;18.50;63.30
54938;DHT22;52756;52.826;6.214;2022-08-19T01:49:09;18.40;63.30
54938;DHT22;52756;52.826;6.214;2022-08-19T01:51:35;18.40;63.30
54938;DHT22;52756;52.826;6.214;2022-08-19T01:54:01;18.40;63.30
54938;DHT22;52756;52.826;6.214;2022-08-19T01:56:27;18.40;63.40
54938;DHT22;52756;52.826;6.214;2022-08-19T01:59:01;18.40;63.40
54938;DHT22;52756;52.826;6.214;2022-08-19T02:01:27;18.40;63.40
54938;DHT22;52756;52.826;6.214;2022-08-19T02:03:58;18.30;63.30
54938;DHT22;52756;52.826;6.214;2022-08-19T02:06:23;18.30;63.30
54938;DHT22;52756;52.826;6.214;2022-08-19T02:08:49;18.30;63.30
54938;DHT22;52756;52.826;6.214;2022-08-19T02:11:24;18.30;63.40
54938;DHT22;52756;52.826;6.214;2022-08-19T02:13:52;18.30;63.40
54938;DHT22;52756;52.826;6.214;2022-08-19T02:16:19;18.30;63.50
54938;DHT22;52756;52.826;6.214;2022-08-19T02:18:46;18.30;63.60
54938;DHT22;52756;52.826;6.214;2022-08-19T02:21:17;18.30;63.60
54938;DHT22;52756;52.826;6.214;2022-08-19T02:23:44;18.20;63.50
54938;DHT22;52756;52.826;6.214;2022-08-19T02:26:10;18.20;63.90
54938;DHT22;52756;52.826;6.214;2022-08-19T02:28:36;18.20;63.50
54938;DHT22;52756;52.826;6.214;2022-08-19T02:31:03;18.20;63.50
54938;DHT22;52756;52.826;6.214;2022-08-19T02:33:29;18.20;63.50
54938;DHT22;52756;52.826;6.214;2022-08-19T02:35:55;18.20;63.60
54938;DHT22;52756;52.826;6.214;2022-08-19T02:38:20;18.20;63.60
54938;DHT22;52756;52.826;6.214;2022-08-19T02:41:01;18.20;63.60
54938;DHT22;52756;52.826;6.214;2022-08-19T02:43:29;18.10;63.60
54938;DHT22;52756;52.826;6.214;2022-08-19T02:45:55;18.10;63.60
54938;DHT22;52756;52.826;6.214;2022-08-19T02:48:22;18.10;63.90
54938;DHT22;52756;52.826;6.214;2022-08-19T02:50:50;18.10;63.40
54938;DHT22;52756;52.826;6.214;2022-08-19T02:53:22;18.10;63.30
54938;DHT22;52756;52.826;6.214;2022-08-19T02:55:49;18.10;63.30
54938;DHT22;52756;52.826;6.214;2022-08-19T02:58:16;18.10;63.20
54938;DHT22;52756;52.826;6.214;2022-08-19T03:00:54;18.10;63.10
54938;DHT22;52756;52.826;6.214;2022-08-19T03:03:21;18.10;63.50
54938;DHT22;52756;52.826;6.214;2022-08-19T03:05:47;18.00;63.00
54938;DHT22;52756;52.826;6.214;2022-08-19T03:08:13;18.00;63.00
54938;DHT22;52756;52.826;6.214;2022-08-19T03:10:47;18.00;63.00
54938;DHT22;52756;52.826;6.214;2022-08-19T03:13:17;18.00;62.90
54938;DHT22;52756;52.826;6.214;2022-08-19T03:15:45;18.00;62.90
54938;DHT22;52756;52.826;6.214;2022-08-19T03:18:12;18.00;62.90
54938;DHT22;52756;52.826;6.214;2022-08-19T03:20:46;17.90;62.90
54938;DHT22;52756;52.826;6.214;2022-08-19T03:23:13;18.00;62.90
54938;DHT22;52756;52.826;6.214;2022-08-19T03:25:45;17.90;62.80
54938;DHT22;52756;52.826;6.214;2022-08-19T03:28:12;17.90;62.80
54938;DHT22;52756;52.826;6.214;2022-08-19T03:30:39;17.90;62.90
54938;DHT22;52756;52.826;6.214;2022-08-19T03:33:10;17.80;62.90
54938;DHT22;52756;52.826;6.214;2022-08-19T03:35:37;17.80;63.00
54938;DHT22;52756;52.826;6.214;2022-08-19T03:38:04;17.80;63.00
54938;DHT22;52756;52.826;6.214;2022-08-19T03:40:30;17.80;62.90
54938;DHT22;52756;52.826;6.214;2022-08-19T03:43:00;17.80;62.80
54938;DHT22;52756;52.826;6.214;2022-08-19T03:45:26;17.80;62.80
54938;DHT22;52756;52.826;6.214;2022-08-19T03:47:53;17.80;62.80
54938;DHT22;52756;52.826;6.214;2022-08-19T03:50:19;17.80;62.80
54938;DHT22;52756;52.826;6.214;2022-08-19T03:52:49;17.70;62.80
54938;DHT22;52756;52.826;6.214;2022-08-19T03:55:16;17.70;62.80
54938;DHT22;52756;52.826;6.214;2022-08-19T03:57:42;17.70;62.90
54938;DHT22;52756;52.826;6.214;2022-08-19T04:00:08;17.70;62.90
54938;DHT22;52756;52.826;6.214;2022-08-19T04:02:34;17.70;62.90
54938;DHT22;52756;52.826;6.214;2022-08-19T04:05:00;17.70;62.90
54938;DHT22;52756;52.826;6.214;2022-08-19T04:07:26;17.70;62.90
54938;DHT22;52756;52.826;6.214;2022-08-19T04:09:52;17.70;62.90
54938;DHT22;52756;52.826;6.214;2022-08-19T04:12:18;17.70;62.80
54938;DHT22;52756;52.826;6.214;2022-08-19T04:14:46;17.60;62.70
54938;DHT22;52756;52.826;6.214;2022-08-19T04:17:12;17.60;62.60
54938;DHT22;52756;52.826;6.214;2022-08-19T04:19:39;17.60;62.70
54938;DHT22;52756;52.826;6.214;2022-08-19T04:22:06;17.60;62.70
54938;DHT22;52756;52.826;6.214;2022-08-19T04:24:35;17.60;62.80
54938;DHT22;52756;52.826;6.214;2022-08-19T04:27:02;17.50;62.80
54938;DHT22;52756;52.826;6.214;2022-08-19T04:29:28;17.50;62.70
54938;DHT22;52756;52.826;6.214;2022-08-19T04:31:55;17.50;62.80
54938;DHT22;52756;52.826;6.214;2022-08-19T04:34:24;17.50;62.70
54938;DHT22;52756;52.826;6.214;2022-08-19T04:36:52;17.50;62.70
54938;DHT22;52756;52.826;6.214;2022-08-19T04:39:23;17.50;62.80
54938;DHT22;52756;52.826;6.214;2022-08-19T04:42:09;17.50;62.80
54938;DHT22;52756;52.826;6.214;2022-08-19T04:44:53;17.40;62.80
54938;DHT22;52756;52.826;6.214;2022-08-19T04:47:20;17.30;62.90
54938;DHT22;52756;52.826;6.214;2022-08-19T04:49:47;17.40;63.00
54938;DHT22;52756;52.826;6.214;2022-08-19T04:52:13;17.30;63.00
54938;DHT22;52756;52.826;6.214;2022-08-19T04:54:39;17.30;63.10
54938;DHT22;52756;52.826;6.214;2022-08-19T04:57:07;17.30;63.10
54938;DHT22;52756;52.826;6.214;2022-08-19T04:59:34;17.30;63.20
54938;DHT22;52756;52.826;6.214;2022-08-19T05:02:00;17.30;63.20
54938;DHT22;52756;52.826;6.214;2022-08-19T05:04:26;17.30;63.20
54938;DHT22;52756;52.826;6.214;2022-08-19T05:06:51;17.30;63.30
54938;DHT22;52756;52.826;6.214;2022-08-19T05:09:18;17.20;63.40
54938;DHT22;52756;52.826;6.214;2022-08-19T05:11:44;17.20;63.40
54938;DHT22;52756;52.826;6.214;2022-08-19T05:14:11;17.20;63.30
54938;DHT22;52756;52.826;6.214;2022-08-19T05:16:39;17.20;63.40
54938;DHT22;52756;52.826;6.214;2022-08-19T05:19:05;17.20;63.60
54938;DHT22;52756;52.826;6.214;2022-08-19T05:21:49;17.20;63.80
54938;DHT22;52756;52.826;6.214;2022-08-19T05:24:33;17.10;63.50
54938;DHT22;52756;52.826;6.214;2022-08-19T05:27:00;17.10;64.10
54938;DHT22;52756;52.826;6.214;2022-08-19T05:29:29;17.10;64.30
54938;DHT22;52756;52.826;6.214;2022-08-19T05:31:57;17.10;64.60
54938;DHT22;52756;52.826;6.214;2022-08-19T05:34:24;17.10;64.80
54938;DHT22;52756;52.826;6.214;2022-08-19T05:36:56;17.10;65.10
54938;DHT22;52756;52.826;6.214;2022-08-19T05:39:29;17.10;65.40
54938;DHT22;52756;52.826;6.214;2022-08-19T05:41:58;17.10;65.90
54938;DHT22;52756;52.826;6.214;2022-08-19T05:44:26;17.10;66.50
54938;DHT22;52756;52.826;6.214;2022-08-19T05:46:52;17.20;66.20
54938;DHT22;52756;52.826;6.214;2022-08-19T05:49:20;17.20;66.40
54938;DHT22;52756;52.826;6.214;2022-08-19T05:51:46;17.20;66.50
54938;DHT22;52756;52.826;6.214;2022-08-19T05:54:12;17.30;66.60
54938;DHT22;52756;52.826;6.214;2022-08-19T05:56:40;17.30;66.90
54938;DHT22;52756;52.826;6.214;2022-08-19T05:59:08;17.40;67.70
54938;DHT22;52756;52.826;6.214;2022-08-19T06:01:35;17.50;68.80
54938;DHT22;52756;52.826;6.214;2022-08-19T06:04:02;17.80;69.40
54938;DHT22;52756;52.826;6.214;2022-08-19T06:06:28;18.10;69.30
54938;DHT22;52756;52.826;6.214;2022-08-19T06:08:54;18.60;68.70
54938;DHT22;52756;52.826;6.214;2022-08-19T06:11:23;19.00;67.90
54938;DHT22;52756;52.826;6.214;2022-08-19T06:13:52;19.60;67.20
54938;DHT22;52756;52.826;6.214;2022-08-19T06:16:22;20.00;66.40
54938;DHT22;52756;52.826;6.214;2022-08-19T06:18:52;20.60;65.40
54938;DHT22;52756;52.826;6.214;2022-08-19T06:21:22;21.10;64.40
54938;DHT22;52756;52.826;6.214;2022-08-19T06:23:49;21.60;63.30
54938;DHT22;52756;52.826;6.214;2022-08-19T06:26:18;22.10;62.60
54938;DHT22;52756;52.826;6.214;2022-08-19T06:28:44;22.50;61.50
54938;DHT22;52756;52.826;6.214;2022-08-19T06:31:23;23.00;60.60
54938;DHT22;52756;52.826;6.214;2022-08-19T06:33:50;23.40;59.50
54938;DHT22;52756;52.826;6.214;2022-08-19T06:36:21;23.80;59.00
54938;DHT22;52756;52.826;6.214;2022-08-19T06:38:53;24.30;58.20
54938;DHT22;52756;52.826;6.214;2022-08-19T06:41:18;24.60;57.50
54938;DHT22;52756;52.826;6.214;2022-08-19T06:43:44;25.00;56.90
54938;DHT22;52756;52.826;6.214;2022-08-19T06:46:12;25.40;56.40
54938;DHT22;52756;52.826;6.214;2022-08-19T06:48:38;25.70;55.90
54938;DHT22;52756;52.826;6.214;2022-08-19T06:51:04;25.90;55.50
54938;DHT22;52756;52.826;6.214;2022-08-19T06:53:31;26.10;54.80
54938;DHT22;52756;52.826;6.214;2022-08-19T06:55:57;26.30;54.40
54938;DHT22;52756;52.826;6.214;2022-08-19T06:58:31;26.50;54.20
54938;DHT22;52756;52.826;6.214;2022-08-19T07:01:03;26.60;53.30
54938;DHT22;52756;52.826;6.214;2022-08-19T07:03:30;26.80;53.10
54938;DHT22;52756;52.826;6.214;2022-08-19T07:05:57;27.00;52.80
54938;DHT22;52756;52.826;6.214;2022-08-19T07:08:23;27.20;52.60
54938;DHT22;52756;52.826;6.214;2022-08-19T07:10:49;27.30;52.10
54938;DHT22;52756;52.826;6.214;2022-08-19T07:13:15;27.50;51.70
54938;DHT22;52756;52.826;6.214;2022-08-19T07:15:41;27.60;51.60
54938;DHT22;52756;52.826;6.214;2022-08-19T07:18:06;27.70;51.30
54938;DHT22;52756;52.826;6.214;2022-08-19T07:20:32;27.80;51.40
54938;DHT22;52756;52.826;6.214;2022-08-19T07:22:58;27.80;51.20
54938;DHT22;52756;52.826;6.214;2022-08-19T07:25:24;28.00;51.20
54938;DHT22;52756;52.826;6.214;2022-08-19T07:27:50;28.10;51.40
54938;DHT22;52756;52.826;6.214;2022-08-19T07:30:16;28.20;50.50
54938;DHT22;52756;52.826;6.214;2022-08-19T07:32:42;28.40;50.60
54938;DHT22;52756;52.826;6.214;2022-08-19T07:35:09;28.60;50.80
54938;DHT22;52756;52.826;6.214;2022-08-19T07:37:36;28.70;50.80
54938;DHT22;52756;52.826;6.214;2022-08-19T07:40:07;28.90;50.40
54938;DHT22;52756;52.826;6.214;2022-08-19T07:42:33;29.00;49.90
54938;DHT22;52756;52.826;6.214;2022-08-19T07:44:58;29.10;49.60
54938;DHT22;52756;52.826;6.214;2022-08-19T07:47:24;29.20;49.40
54938;DHT22;52756;52.826;6.214;2022-08-19T07:49:49;29.20;48.90
54938;DHT22;52756;52.826;6.214;2022-08-19T07:52:15;29.30;48.90
54938;DHT22;52756;52.826;6.214;2022-08-19T07:54:42;29.40;48.60
54938;DHT22;52756;52.826;6.214;2022-08-19T07:57:08;29.50;48.30
54938;DHT22;52756;52.826;6.214;2022-08-19T07:59:34;29.60;48.10
54938;DHT22;52756;52.826;6.214;2022-08-19T08:02:01;29.60;48.10
54938;DHT22;52756;52.826;6.214;2022-08-19T08:04:28;29.70;47.80
54938;DHT22;52756;52.826;6.214;2022-08-19T08:07:13;29.70;47.80
54938;DHT22;52756;52.826;6.214;2022-08-19T08:09:57;29.80;47.30
54938;DHT22;52756;52.826;6.214;2022-08-19T08:12:34;29.80;47.30
54938;DHT22;52756;52.826;6.214;2022-08-19T08:15:06;29.90;47.40
54938;DHT22;52756;52.826;6.214;2022-08-19T08:17:33;30.00;47.30
54938;DHT22;52756;52.826;6.214;2022-08-19T08:19:59;30.10;47.40
54938;DHT22;52756;52.826;6.214;2022-08-19T08:22:25;30.10;47.40
54938;DHT22;52756;52.826;6.214;2022-08-19T08:25:13;30.20;47.70
54938;DHT22;52756;52.826;6.214;2022-08-19T08:27:41;30.30;47.00
54938;DHT22;52756;52.826;6.214;2022-08-19T08:30:12;30.40;46.90
54938;DHT22;52756;52.826;6.214;2022-08-19T08:32:41;30.40;46.70
54938;DHT22;52756;52.826;6.214;2022-08-19T08:35:09;30.50;46.30
54938;DHT22;52756;52.826;6.214;2022-08-19T08:37:35;30.50;46.30
54938;DHT22;52756;52.826;6.214;2022-08-19T08:40:29;30.60;46.00
54938;DHT22;52756;52.826;6.214;2022-08-19T08:45:28;30.80;45.70
54938;DHT22;52756;52.826;6.214;2022-08-19T08:47:57;30.80;46.00
54938;DHT22;52756;52.826;6.214;2022-08-19T08:50:33;30.90;46.10
54938;DHT22;52756;52.826;6.214;2022-08-19T08:53:05;31.00;45.80
54938;DHT22;52756;52.826;6.214;2022-08-19T08:55:32;31.00;45.80
54938;DHT22;52756;52.826;6.214;2022-08-19T08:58:05;31.00;45.90
54938;DHT22;52756;52.826;6.214;2022-08-19T09:00:37;31.10;45.70
54938;DHT22;52756;52.826;6.214;2022-08-19T09:03:09;31.20;45.30
54938;DHT22;52756;52.826;6.214;2022-08-19T09:08:08;31.20;45.40
54938;DHT22;52756;52.826;6.214;2022-08-19T09:10:55;31.30;45.10
54938;DHT22;52756;52.826;6.214;2022-08-19T09:13:49;31.40;45.00
54938;DHT22;52756;52.826;6.214;2022-08-19T09:16:20;31.40;45.10
54938;DHT22;52756;52.826;6.214;2022-08-19T09:18:51;31.40;45.00
54938;DHT22;52756;52.826;6.214;2022-08-19T09:21:19;31.40;44.80
54938;DHT22;52756;52.826;6.214;2022-08-19T09:23:46;31.50;45.00
54938;DHT22;52756;52.826;6.214;2022-08-19T09:26:15;31.50;44.90
54938;DHT22;52756;52.826;6.214;2022-08-19T09:28:43;31.60;44.80
54938;DHT22;52756;52.826;6.214;2022-08-19T09:31:14;31.60;44.70
54938;DHT22;52756;52.826;6.214;2022-08-19T09:33:40;31.60;44.60
54938;DHT22;52756;52.826;6.214;2022-08-19T09:36:12;31.70;44.10
54938;DHT22;52756;52.826;6.214;2022-08-19T09:38:38;31.60;44.00
54938;DHT22;52756;52.826;6.214;2022-08-19T09:41:11;31.60;44.20
54938;DHT22;52756;52.826;6.214;2022-08-19T09:43:37;31.60;44.30
54938;DHT22;52756;52.826;6.214;2022-08-19T09:46:05;31.70;44.30
54938;DHT22;52756;52.826;6.214;2022-08-19T09:48:39;31.70;44.50
54938;DHT22;52756;52.826;6.214;2022-08-19T09:51:13;31.70;44.70
54938;DHT22;52756;52.826;6.214;2022-08-19T09:53:43;31.70;44.60
54938;DHT22;52756;52.826;6.214;2022-08-19T09:56:09;31.80;44.40
54938;DHT22;52756;52.826;6.214;2022-08-19T09:58:36;31.80;44.30
54938;DHT22;52756;52.826;6.214;2022-08-19T10:01:03;31.90;44.10
54938;DHT22;52756;52.826;6.214;2022-08-19T10:03:30;31.90;43.90
54938;DHT22;52756;52.826;6.214;2022-08-19T10:05:58;31.80;44.00
54938;DHT22;52756;52.826;6.214;2022-08-19T10:08:32;31.80;43.90
54938;DHT22;52756;52.826;6.214;2022-08-19T10:10:59;31.80;44.00
54938;DHT22;52756;52.826;6.214;2022-08-19T10:13:27;31.80;43.70
54938;DHT22;52756;52.826;6.214;2022-08-19T10:15:56;31.70;44.00
54938;DHT22;52756;52.826;6.214;2022-08-19T10:18:23;31.70;44.00
54938;DHT22;52756;52.826;6.214;2022-08-19T10:20:50;31.70;43.90
54938;DHT22;52756;52.826;6.214;2022-08-19T10:23:20;31.70;43.70
54938;DHT22;52756;52.826;6.214;2022-08-19T10:25:46;31.80;43.60
54938;DHT22;52756;52.826;6.214;2022-08-19T10:28:11;31.70;43.20
54938;DHT22;52756;52.826;6.214;2022-08-19T10:30:40;31.80;43.30
54938;DHT22;52756;52.826;6.214;2022-08-19T10:33:06;31.80;43.80
54938;DHT22;52756;52.826;6.214;2022-08-19T10:35:32;31.80;43.30
54938;DHT22;52756;52.826;6.214;2022-08-19T10:37:58;31.80;43.50
54938;DHT22;52756;52.826;6.214;2022-08-19T10:40:26;31.90;43.00
54938;DHT22;52756;52.826;6.214;2022-08-19T10:42:53;31.90;43.60
54938;DHT22;52756;52.826;6.214;2022-08-19T10:45:21;31.90;44.00
54938;DHT22;52756;52.826;6.214;2022-08-19T10:47:50;31.90;43.70
54938;DHT22;52756;52.826;6.214;2022-08-19T10:50:16;31.90;43.50
54938;DHT22;52756;52.826;6.214;2022-08-19T10:53:04;32.00;43.80
54938;DHT22;52756;52.826;6.214;2022-08-19T10:55:30;32.00;43.70
54938;DHT22;52756;52.826;6.214;2022-08-19T10:58:17;32.00;43.60
54938;DHT22;52756;52.826;6.214;2022-08-19T11:00:55;32.00;43.40
54938;DHT22;52756;52.826;6.214;2022-08-19T11:03:22;32.10;43.70
54938;DHT22;52756;52.826;6.214;2022-08-19T11:05:58;32.10;43.50
54938;DHT22;52756;52.826;6.214;2022-08-19T11:08:24;32.10;43.30
54938;DHT22;52756;52.826;6.214;2022-08-19T11:10:53;32.10;42.10
54938;DHT22;52756;52.826;6.214;2022-08-19T11:13:21;32.10;43.10
54938;DHT22;52756;52.826;6.214;2022-08-19T11:15:47;32.10;43.80
54938;DHT22;52756;52.826;6.214;2022-08-19T11:18:13;32.10;43.40
54938;DHT22;52756;52.826;6.214;2022-08-19T11:20:38;32.10;43.30
54938;DHT22;52756;52.826;6.214;2022-08-19T11:23:04;32.10;43.00
54938;DHT22;52756;52.826;6.214;2022-08-19T11:25:29;32.20;43.10
54938;DHT22;52756;52.826;6.214;2022-08-19T11:27:55;32.20;43.20
54938;DHT22;52756;52.826;6.214;2022-08-19T11:30:21;32.20;43.00
54938;DHT22;52756;52.826;6.214;2022-08-19T11:32:46;32.20;42.70
54938;DHT22;52756;52.826;6.214;2022-08-19T11:35:13;32.30;42.80
54938;DHT22;52756;52.826;6.214;2022-08-19T11:37:39;32.30;43.00
54938;DHT22;52756;52.826;6.214;2022-08-19T11:40:06;32.30;43.00
54938;DHT22;52756;52.826;6.214;2022-08-19T11:42:32;32.30;42.10
54938;DHT22;52756;52.826;6.214;2022-08-19T11:45:16;32.30;42.20
54938;DHT22;52756;52.826;6.214;2022-08-19T11:47:42;32.20;42.50
54938;DHT22;52756;52.826;6.214;2022-08-19T11:50:09;32.20;41.80
54938;DHT22;52756;52.826;6.214;2022-08-19T11:52:35;32.20;42.70
54938;DHT22;52756;52.826;6.214;2022-08-19T11:55:00;32.20;42.70
54938;DHT22;52756;52.826;6.214;2022-08-19T11:57:26;32.10;42.30
54938;DHT22;52756;52.826;6.214;2022-08-19T11:59:52;32.10;41.70
54938;DHT22;52756;52.826;6.214;2022-08-19T12:02:18;32.10;42.90
54938;DHT22;52756;52.826;6.214;2022-08-19T12:04:44;32.10;43.20
54938;DHT22;52756;52.826;6.214;2022-08-19T12:07:11;32.10;43.20
54938;DHT22;52756;52.826;6.214;2022-08-19T12:09:37;32.10;43.40
54938;DHT22;52756;52.826;6.214;2022-08-19T12:12:04;32.20;43.20
54938;DHT22;52756;52.826;6.214;2022-08-19T12:14:30;32.20;43.20
54938;DHT22;52756;52.826;6.214;2022-08-19T12:16:57;32.20;43.30
54938;DHT22;52756;52.826;6.214;2022-08-19T12:19:23;32.20;43.30
54938;DHT22;52756;52.826;6.214;2022-08-19T12:21:50;32.20;42.70
54938;DHT22;52756;52.826;6.214;2022-08-19T12:24:17;32.20;42.10
54938;DHT22;52756;52.826;6.214;2022-08-19T12:26:48;32.10;42.50
54938;DHT22;52756;52.826;6.214;2022-08-19T12:29:14;32.10;43.20
54938;DHT22;52756;52.826;6.214;2022-08-19T12:31:40;32.00;43.20
54938;DHT22;52756;52.826;6.214;2022-08-19T12:34:06;31.90;43.40
54938;DHT22;52756;52.826;6.214;2022-08-19T12:36:33;31.90;43.40
54938;DHT22;52756;52.826;6.214;2022-08-19T12:38:59;31.80;43.50
54938;DHT22;52756;52.826;6.214;2022-08-19T12:41:25;31.70;43.90
54938;DHT22;52756;52.826;6.214;2022-08-19T12:43:51;31.70;44.10
54938;DHT22;52756;52.826;6.214;2022-08-19T12:46:18;31.70;44.20
54938;DHT22;52756;52.826;6.214;2022-08-19T12:48:45;31.70;44.40
54938;DHT22;52756;52.826;6.214;2022-08-19T12:51:16;31.60;44.20
54938;DHT22;52756;52.826;6.214;2022-08-19T12:53:43;31.60;44.10
54938;DHT22;52756;52.826;6.214;2022-08-19T12:56:10;31.60;43.60
54938;DHT22;52756;52.826;6.214;2022-08-19T12:58:37;31.60;43.30
54938;DHT22;52756;52.826;6.214;2022-08-19T13:01:14;31.50;43.20
54938;DHT22;52756;52.826;6.214;2022-08-19T13:03:40;31.50;43.60
54938;DHT22;52756;52.826;6.214;2022-08-19T13:06:07;31.40;43.70
54938;DHT22;52756;52.826;6.214;2022-08-19T13:08:32;31.40;44.10
54938;DHT22;52756;52.826;6.214;2022-08-19T13:11:13;31.40;44.30
54938;DHT22;52756;52.826;6.214;2022-08-19T13:13:41;31.40;44.60
54938;DHT22;52756;52.826;6.214;2022-08-19T13:16:09;31.30;44.70
54938;DHT22;52756;52.826;6.214;2022-08-19T13:18:36;31.20;44.80
54938;DHT22;52756;52.826;6.214;2022-08-19T13:21:04;31.20;44.90
54938;DHT22;52756;52.826;6.214;2022-08-19T13:23:30;31.20;44.80
54938;DHT22;52756;52.826;6.214;2022-08-19T13:26:01;31.10;44.40
54938;DHT22;52756;52.826;6.214;2022-08-19T13:28:28;31.00;44.70
54938;DHT22;52756;52.826;6.214;2022-08-19T13:31:22;31.00;44.80
54938;DHT22;52756;52.826;6.214;2022-08-19T13:34:07;30.90;44.90
54938;DHT22;52756;52.826;6.214;2022-08-19T13:36:34;30.80;45.50
54938;DHT22;52756;52.826;6.214;2022-08-19T13:39:00;30.70;45.50
54938;DHT22;52756;52.826;6.214;2022-08-19T13:41:26;30.60;45.70
54938;DHT22;52756;52.826;6.214;2022-08-19T13:43:52;30.50;45.60
54938;DHT22;52756;52.826;6.214;2022-08-19T13:46:19;30.50;45.70
54938;DHT22;52756;52.826;6.214;2022-08-19T13:48:46;30.50;46.00
54938;DHT22;52756;52.826;6.214;2022-08-19T13:51:14;30.40;46.10
54938;DHT22;52756;52.826;6.214;2022-08-19T13:53:42;30.30;46.30
54938;DHT22;52756;52.826;6.214;2022-08-19T13:56:10;30.30;46.30
54938;DHT22;52756;52.826;6.214;2022-08-19T13:58:37;30.10;46.60
54938;DHT22;52756;52.826;6.214;2022-08-19T14:01:04;30.00;46.80
54938;DHT22;52756;52.826;6.214;2022-08-19T14:03:31;29.90;47.20
54938;DHT22;52756;52.826;6.214;2022-08-19T14:05:57;29.80;47.80
54938;DHT22;52756;52.826;6.214;2022-08-19T14:08:23;29.80;48.00
54938;DHT22;52756;52.826;6.214;2022-08-19T14:10:49;29.70;48.30
54938;DHT22;52756;52.826;6.214;2022-08-19T14:13:19;29.50;48.50
54938;DHT22;52756;52.826;6.214;2022-08-19T14:15:46;29.50;48.90
54938;DHT22;52756;52.826;6.214;2022-08-19T14:18:13;29.40;48.80
54938;DHT22;52756;52.826;6.214;2022-08-19T14:20:39;29.30;48.90
54938;DHT22;52756;52.826;6.214;2022-08-19T14:23:05;29.20;49.10
54938;DHT22;52756;52.826;6.214;2022-08-19T14:25:32;29.00;49.20
54938;DHT22;52756;52.826;6.214;2022-08-19T14:27:58;29.00;49.80
54938;DHT22;52756;52.826;6.214;2022-08-19T14:30:31;28.80;49.90
54938;DHT22;52756;52.826;6.214;2022-08-19T14:32:59;28.70;50.20
54938;DHT22;52756;52.826;6.214;2022-08-19T14:35:26;28.70;50.60
54938;DHT22;52756;52.826;6.214;2022-08-19T14:37:53;28.60;50.70
54938;DHT22;52756;52.826;6.214;2022-08-19T14:40:25;28.50;50.90
54938;DHT22;52756;52.826;6.214;2022-08-19T14:42:52;28.50;50.00
54938;DHT22;52756;52.826;6.214;2022-08-19T14:45:21;28.40;49.50
54938;DHT22;52756;52.826;6.214;2022-08-19T14:47:47;28.40;48.90
54938;DHT22;52756;52.826;6.214;2022-08-19T14:50:12;28.40;49.00
54938;DHT22;52756;52.826;6.214;2022-08-19T14:52:39;28.30;49.40
54938;DHT22;52756;52.826;6.214;2022-08-19T14:55:05;28.30;49.70
54938;DHT22;52756;52.826;6.214;2022-08-19T14:57:31;28.30;49.80
54938;DHT22;52756;52.826;6.214;2022-08-19T14:59:57;28.30;49.90
54938;DHT22;52756;52.826;6.214;2022-08-19T15:02:22;28.10;50.10
54938;DHT22;52756;52.826;6.214;2022-08-19T15:04:48;28.30;50.40
54938;DHT22;52756;52.826;6.214;2022-08-19T15:07:15;28.30;50.50
54938;DHT22;52756;52.826;6.214;2022-08-19T15:09:41;28.40;50.80
54938;DHT22;52756;52.826;6.214;2022-08-19T15:12:07;28.40;50.90
54938;DHT22;52756;52.826;6.214;2022-08-19T15:14:36;28.40;50.90
54938;DHT22;52756;52.826;6.214;2022-08-19T15:17:04;28.40;50.90
54938;DHT22;52756;52.826;6.214;2022-08-19T15:19:31;28.40;50.90
54938;DHT22;52756;52.826;6.214;2022-08-19T15:21:57;28.50;51.00
54938;DHT22;52756;52.826;6.214;2022-08-19T15:24:24;28.50;51.00
54938;DHT22;52756;52.826;6.214;2022-08-19T15:26:52;28.50;51.00
54938;DHT22;52756;52.826;6.214;2022-08-19T15:29:19;28.50;50.70
54938;DHT22;52756;52.826;6.214;2022-08-19T15:31:44;28.40;50.50
54938;DHT22;52756;52.826;6.214;2022-08-19T15:34:11;28.50;50.50
54938;DHT22;52756;52.826;6.214;2022-08-19T15:36:37;28.50;50.50
54938;DHT22;52756;52.826;6.214;2022-08-19T15:39:03;28.50;50.50
54938;DHT22;52756;52.826;6.214;2022-08-19T15:41:31;28.40;50.50
54938;DHT22;52756;52.826;6.214;2022-08-19T15:44:00;28.40;50.70
54938;DHT22;52756;52.826;6.214;2022-08-19T15:46:31;28.20;51.10